Time;durP1;ratioP1;P1;durP2;ratioP2;P2;SDS_P1;SDS_P2;PMS_P1;PMS_P2;Temp;Humidity;BMP_temperature;BMP_pressure;BME280_temperature;BME280_humidity;BME280_pressure;Samples;Min_cycle;Max_cycle;Signal;HPM_P1;HPM_P2
2023/07/05 00:01:02;;;;;;;6.50;4.00;;;;;;;10.68;100.00;100686.06;4858343;29;20075;-82
2023/07/05 00:03:28;;;;;;;9.75;4.90;;;;;;;10.69;100.00;100687.81;4911666;29;20568;-84
2023/07/05 00:05:55;;;;;;;7.60;5.15;;;;;;;10.54;100.00;100684.59;4879619;29;20556;-82
2023/07/05 00:08:23;;;;;;;9.00;4.50;;;;;;;10.56;100.00;100678.38;4848054;29;20656;-81
2023/07/05 00:11:00;;;;;;;8.07;5.32;;;;;;;10.51;100.00;100680.25;4869711;29;20564;-82
2023/07/05 00:13:28;;;;;;;7.30;4.85;;;;;;;10.47;100.00;100673.28;4872325;29;20079;-81
2023/07/05 00:15:55;;;;;;;6.22;4.25;;;;;;;10.48;100.00;100672.38;4874463;29;20120;-84
2023/07/05 00:18:22;;;;;;;6.68;5.28;;;;;;;10.54;100.00;100672.25;4869479;29;20135;-81
2023/07/05 00:20:49;;;;;;;7.28;4.50;;;;;;;10.42;100.00;100670.75;4853707;29;20456;-83
2023/07/05 00:23:15;;;;;;;6.43;4.47;;;;;;;10.45;100.00;100658.38;4891319;29;20480;-84
2023/07/05 00:25:42;;;;;;;8.07;4.60;;;;;;;10.46;100.00;100650.41;4856513;29;20123;-80
2023/07/05 00:28:09;;;;;;;6.50;4.90;;;;;;;10.50;100.00;100652.06;4882467;29;20512;-82
2023/07/05 00:30:36;;;;;;;5.72;4.57;;;;;;;10.40;100.00;100655.81;4858273;29;20069;-84
2023/07/05 00:33:02;;;;;;;7.78;4.70;;;;;;;10.38;100.00;100652.34;4878575;29;20499;-79
2023/07/05 00:35:29;;;;;;;6.43;4.40;;;;;;;10.37;100.00;100655.88;4878487;29;20047;-83
2023/07/05 00:37:56;;;;;;;6.13;4.90;;;;;;;10.38;100.00;100647.06;4869653;29;20551;-80
2023/07/05 00:40:23;;;;;;;7.63;4.65;;;;;;;10.24;100.00;100649.09;4888023;29;20037;-83
2023/07/05 00:42:50;;;;;;;8.05;5.03;;;;;;;10.28;100.00;100645.50;4876692;29;20136;-84
2023/07/05 00:45:17;;;;;;;9.80;5.32;;;;;;;10.23;100.00;100650.84;4878370;29;20184;-82
2023/07/05 00:47:45;;;;;;;6.97;4.95;;;;;;;10.29;100.00;100647.22;4878690;29;20477;-83
2023/07/05 00:50:18;;;;;;;6.10;4.68;;;;;;;10.22;100.00;100642.94;4896003;29;20463;-82
2023/07/05 00:52:45;;;;;;;7.97;5.55;;;;;;;10.29;100.00;100634.03;4878854;29;20072;-82
2023/07/05 00:55:12;;;;;;;8.35;4.85;;;;;;;10.32;100.00;100636.59;4866177;29;20049;-82
2023/07/05 00:57:39;;;;;;;7.97;5.15;;;;;;;10.28;100.00;100634.94;4875014;29;20040;-82
2023/07/05 01:00:09;;;;;;;7.75;4.72;;;;;;;10.12;100.00;100629.03;4875822;29;20041;-80
2023/07/05 01:02:39;;;;;;;7.28;4.88;;;;;;;10.09;100.00;100634.41;4891971;29;20116;-81
2023/07/05 01:05:08;;;;;;;7.40;4.97;;;;;;;10.15;100.00;100614.00;4885012;29;20087;-82
2023/07/05 01:07:36;;;;;;;7.95;5.10;;;;;;;10.15;100.00;100618.41;4883489;29;20044;-82
2023/07/05 01:10:03;;;;;;;7.93;4.65;;;;;;;10.10;100.00;100615.00;4868840;29;20382;-80
2023/07/05 01:12:36;;;;;;;6.10;4.75;;;;;;;10.06;100.00;100608.91;4879874;29;20037;-81
2023/07/05 01:15:10;;;;;;;7.32;5.30;;;;;;;10.15;100.00;100602.56;4898334;29;20105;-82
2023/07/05 01:18:04;;;;;;;6.38;4.95;;;;;;;10.21;100.00;100601.59;4877935;29;20048;-81
2023/07/05 01:20:45;;;;;;;11.63;5.35;;;;;;;10.00;100.00;100609.00;4887279;29;20050;-82
2023/07/05 01:23:45;;;;;;;7.22;5.20;;;;;;;9.99;100.00;100609.03;4875763;29;20052;-82
2023/07/05 01:26:41;;;;;;;9.18;6.05;;;;;;;9.96;100.00;100614.41;4853087;29;20072;-82
2023/07/05 01:29:28;;;;;;;6.50;5.13;;;;;;;9.93;100.00;100603.91;4875510;29;20045;-80
2023/07/05 01:32:06;;;;;;;7.82;5.10;;;;;;;9.91;100.00;100603.91;4873185;29;20040;-83
2023/07/05 01:34:43;;;;;;;8.30;5.35;;;;;;;9.97;100.00;100609.09;4875452;29;20048;-82
2023/07/05 01:37:28;;;;;;;8.77;5.75;;;;;;;9.93;100.00;100607.41;4897866;29;20045;-83
2023/07/05 01:39:54;;;;;;;8.45;4.85;;;;;;;10.01;100.00;100608.13;4869714;29;20037;-82
2023/07/05 01:42:30;;;;;;;7.43;5.45;;;;;;;9.96;100.00;100607.34;4875644;29;20068;-81
2023/07/05 01:44:56;;;;;;;6.68;5.50;;;;;;;9.92;100.00;100607.41;4872805;29;20040;-80
2023/07/05 01:47:32;;;;;;;6.40;4.88;;;;;;;9.97;100.00;100593.25;4873831;29;20068;-80
2023/07/05 01:50:10;;;;;;;11.10;5.78;;;;;;;9.98;100.00;100591.47;4893253;29;20097;-80
2023/07/05 01:53:08;;;;;;;7.35;4.55;;;;;;;9.88;100.00;100594.28;4885324;29;20051;-80
2023/07/05 01:55:41;;;;;;;6.68;5.13;;;;;;;9.93;100.00;100594.22;4877629;29;20049;-80
2023/07/05 01:58:13;;;;;;;8.38;5.40;;;;;;;9.87;100.00;100597.84;4898722;29;20445;-81
2023/07/05 02:00:41;;;;;;;7.75;5.40;;;;;;;9.92;100.00;100587.22;4866903;29;20033;-82
2023/07/05 02:03:14;;;;;;;6.65;5.10;;;;;;;9.93;100.00;100590.72;4896047;29;20065;-82
2023/07/05 02:05:43;;;;;;;8.43;5.32;;;;;;;9.94;100.00;100597.72;4878368;29;20071;-82
2023/07/05 02:08:10;;;;;;;6.30;4.95;;;;;;;9.96;100.00;100588.00;4896714;29;20057;-80
2023/07/05 02:10:36;;;;;;;9.23;5.45;;;;;;;9.91;100.00;100593.34;4872362;29;20044;-83
2023/07/05 02:13:07;;;;;;;9.18;5.07;;;;;;;9.86;100.00;100582.91;4872436;29;20080;-80
2023/07/05 02:15:35;;;;;;;10.00;5.93;;;;;;;9.92;100.00;100584.56;4855126;29;20045;-80
2023/07/05 02:18:02;;;;;;;8.38;5.45;;;;;;;9.88;100.00;100572.31;4868936;29;20566;-81
2023/07/05 02:20:30;;;;;;;12.45;5.47;;;;;;;9.97;100.00;100569.50;4880448;29;20041;-82
2023/07/05 02:22:57;;;;;;;8.73;6.13;;;;;;;9.90;100.00;100567.88;4885879;29;20075;-83
2023/07/05 02:25:26;;;;;;;8.65;6.20;;;;;;;9.95;100.00;100573.06;4881699;29;20331;-82
2023/07/05 02:27:53;;;;;;;8.20;5.50;;;;;;;9.88;100.00;100562.63;4878036;29;20100;-82
2023/07/05 02:30:22;;;;;;;7.07;5.10;;;;;;;9.93;100.00;100562.56;4877259;29;20045;-80
2023/07/05 02:32:48;;;;;;;8.32;6.03;;;;;;;9.94;100.00;100561.66;4857632;29;20049;-82
2023/07/05 02:35:16;;;;;;;8.85;6.28;;;;;;;9.97;100.00;100553.66;4873218;29;20049;-81
2023/07/05 02:37:42;;;;;;;7.88;5.65;;;;;;;9.97;100.00;100553.66;4862990;29;20057;-82
2023/07/05 02:40:09;;;;;;;9.55;6.47;;;;;;;10.04;100.00;100542.09;4868171;29;20427;-82
2023/07/05 02:42:36;;;;;;;10.32;6.28;;;;;;;10.05;100.00;100538.53;4874707;29;20055;-81
2023/07/05 02:45:03;;;;;;;10.70;6.93;;;;;;;10.09;100.00;100534.09;4880892;29;20328;-82
2023/07/05 02:47:30;;;;;;;7.75;5.90;;;;;;;10.11;100.00;100527.00;4866546;29;20053;-81
2023/07/05 02:49:57;;;;;;;7.22;5.47;;;;;;;10.15;100.00;100528.66;4865163;29;20048;-82
2023/07/05 02:52:24;;;;;;;8.75;6.13;;;;;;;10.19;100.00;100519.78;4888473;29;20049;-80
2023/07/05 02:54:51;;;;;;;6.70;5.60;;;;;;;10.21;100.00;100523.25;4848784;29;20059;-80
2023/07/05 02:57:18;;;;;;;6.90;5.20;;;;;;;10.26;100.00;100513.50;4856859;29;20093;-82
2023/07/05 02:59:44;;;;;;;10.48;6.22;;;;;;;10.29;100.00;100510.78;4846890;29;20045;-80
2023/07/05 03:02:11;;;;;;;8.27;5.70;;;;;;;10.27;100.00;100507.31;4880108;29;20118;-82
2023/07/05 03:04:38;;;;;;;9.10;6.38;;;;;;;10.30;100.00;100490.53;4880602;29;20056;-82
2023/07/05 03:07:05;;;;;;;9.43;5.82;;;;;;;10.27;100.00;100490.63;4882995;29;20053;-81
2023/07/05 03:09:32;;;;;;;10.55;6.57;;;;;;;10.41;100.00;100489.38;4863602;29;20052;-80
2023/07/05 03:11:59;;;;;;;8.88;6.32;;;;;;;10.43;100.00;100484.97;4864551;29;20052;-83
2023/07/05 03:14:26;;;;;;;10.55;6.40;;;;;;;10.49;100.00;100489.22;4865277;29;20049;-83
2023/07/05 03:16:53;;;;;;;8.05;5.90;;;;;;;10.49;100.00;100488.34;4912201;29;20108;-82
2023/07/05 03:19:19;;;;;;;12.02;6.20;;;;;;;10.51;100.00;100487.44;4877518;29;20084;-81
2023/07/05 03:21:47;;;;;;;10.40;6.25;;;;;;;10.54;100.00;100476.78;4875084;29;20048;-82
2023/07/05 03:24:13;;;;;;;7.88;6.35;;;;;;;10.64;100.00;100480.06;4881823;29;20072;-81
2023/07/05 03:26:40;;;;;;;8.38;5.65;;;;;;;10.72;100.00;100472.84;4872823;29;20089;-81
2023/07/05 03:29:07;;;;;;;10.00;5.75;;;;;;;10.90;100.00;100471.50;4864933;29;20052;-83
2023/07/05 03:31:34;;;;;;;7.65;5.40;;;;;;;10.88;100.00;100473.34;4865106;29;20083;-83
2023/07/05 03:34:01;;;;;;;10.23;6.10;;;;;;;10.94;100.00;100478.47;4879241;29;20050;-81
2023/07/05 03:36:28;;;;;;;9.68;5.47;;;;;;;11.10;100.00;100469.25;4871445;29;20076;-81
2023/07/05 03:38:54;;;;;;;7.90;5.35;;;;;;;11.12;100.00;100475.38;4873774;29;20136;-83
2023/07/05 03:41:24;;;;;;;7.57;5.18;;;;;;;11.15;100.00;100472.63;4898034;29;20071;-80
2023/07/05 03:43:58;;;;;;;9.52;5.78;;;;;;;11.25;100.00;100467.97;4872931;29;20382;-82
2023/07/05 03:46:25;;;;;;;6.97;5.22;;;;;;;11.35;100.00;100461.53;4888335;29;20036;-82
2023/07/05 03:48:52;;;;;;;7.55;5.60;;;;;;;11.49;100.00;100459.38;4892161;29;20179;-80
2023/07/05 03:51:20;;;;;;;8.15;5.95;;;;;;;11.62;100.00;100449.34;4874961;29;20072;-80
2023/07/05 03:53:52;;;;;;;7.63;5.93;;;;;;;11.71;100.00;100454.38;4860252;29;20064;-81
2023/07/05 03:56:20;;;;;;;10.82;5.70;;;;;;;11.82;100.00;100456.72;4889610;29;20400;-80
2023/07/05 03:58:47;;;;;;;8.43;5.88;;;;;;;11.87;100.00;100446.03;4872636;29;20033;-83
2023/07/05 04:01:19;;;;;;;7.38;5.65;;;;;;;11.84;100.00;100449.59;4884236;29;20108;-83
2023/07/05 04:03:48;;;;;;;10.23;5.95;;;;;;;11.93;100.00;100443.16;4868255;29;20052;-83
2023/07/05 04:06:16;;;;;;;8.82;5.15;;;;;;;12.02;100.00;100446.44;4893563;29;20041;-83
2023/07/05 04:08:43;;;;;;;6.60;5.25;;;;;;;12.16;100.00;100440.72;4854639;29;20049;-84
2023/07/05 04:11:10;;;;;;;7.95;5.50;;;;;;;12.21;100.00;100438.81;4868050;29;20108;-83
2023/07/05 04:13:37;;;;;;;8.82;5.05;;;;;;;12.36;100.00;100442.75;4880291;29;20539;-83
2023/07/05 04:16:08;;;;;;;8.40;5.28;;;;;;;12.40;100.00;100444.38;4872937;29;20053;-82
2023/07/05 04:18:36;;;;;;;6.53;4.95;;;;;;;12.61;100.00;100425.16;4880778;29;20495;-83
2023/07/05 04:21:03;;;;;;;8.48;4.85;;;;;;;12.66;100.00;100417.06;4889301;29;20037;-83
2023/07/05 04:23:30;;;;;;;8.45;5.00;;;;;;;12.74;100.00;100428.25;4854109;29;20077;-83
2023/07/05 04:26:02;;;;;;;6.13;4.90;;;;;;;12.88;100.00;100422.53;4874577;29;20044;-81
2023/07/05 04:28:30;;;;;;;9.82;5.00;;;;;;;13.06;100.00;100416.56;4891791;29;20068;-81
2023/07/05 04:30:57;;;;;;;6.70;4.30;;;;;;;13.19;100.00;100417.91;4880632;29;20124;-83
2023/07/05 04:33:24;;;;;;;8.05;4.70;;;;;;;13.42;100.00;100408.28;4885766;29;20037;-84
2023/07/05 04:35:53;;;;;;;6.68;4.40;;;;;;;13.53;100.00;100408.72;4871765;29;20136;-83
2023/07/05 04:38:20;;;;;;;6.43;4.30;;;;;;;13.69;94.98;100396.63;4883008;29;20106;-83
2023/07/05 04:40:47;;;;;;;9.45;4.13;;;;;;;13.80;97.70;100390.94;4854870;29;20128;-79
2023/07/05 04:43:17;;;;;;;6.13;4.68;;;;;;;13.88;93.75;100396.81;4875862;29;20049;-83
2023/07/05 04:45:55;;;;;;;9.50;4.93;;;;;;;13.94;95.17;100401.88;4872445;29;20046;-81
2023/07/05 04:48:23;;;;;;;6.70;4.75;;;;;;;14.16;94.16;100393.09;4862485;29;20488;-83
2023/07/05 04:50:52;;;;;;;7.38;4.40;;;;;;;14.25;93.95;100390.06;4855354;29;20045;-81
2023/07/05 04:53:21;;;;;;;6.72;4.95;;;;;;;14.32;89.97;100378.25;4872236;29;20312;-84
2023/07/05 04:55:51;;;;;;;5.95;4.10;;;;;;;14.51;87.41;100373.94;4891530;29;20104;-83
2023/07/05 04:58:18;;;;;;;9.38;4.10;;;;;;;14.63;90.61;100376.13;4867296;29;20048;-84
2023/07/05 05:00:46;;;;;;;10.20;4.43;;;;;;;14.79;83.88;100371.00;4869123;29;20033;-81
2023/07/05 05:03:13;;;;;;;6.78;4.50;;;;;;;14.94;80.10;100374.81;4913884;29;20533;-81
2023/07/05 05:05:44;;;;;;;5.88;3.95;;;;;;;14.99;81.38;100374.63;4881089;29;20448;-81
2023/07/05 05:08:11;;;;;;;11.07;4.05;;;;;;;15.15;77.59;100373.88;4859304;29;20478;-82
2023/07/05 05:10:38;;;;;;;9.00;4.07;;;;;;;15.28;78.91;100357.38;4881013;29;20497;-83
2023/07/05 05:13:07;;;;;;;5.78;4.20;;;;;;;15.27;81.30;100360.97;4882080;29;20048;-82
2023/07/05 05:15:38;;;;;;;8.18;4.38;;;;;;;15.30;83.49;100363.47;4892209;29;20045;-82
2023/07/05 05:18:05;;;;;;;6.60;4.30;;;;;;;15.35;80.03;100361.47;4871506;29;20055;-81
2023/07/05 05:20:32;;;;;;;5.40;4.05;;;;;;;15.47;76.24;100363.63;4877880;29;20413;-82
2023/07/05 05:22:59;;;;;;;5.95;3.95;;;;;;;15.46;76.12;100368.03;4872930;29;20036;-80
2023/07/05 05:25:27;;;;;;;6.32;3.83;;;;;;;15.54;79.46;100358.84;4865404;29;20049;-83
2023/07/05 05:27:54;;;;;;;6.95;3.97;;;;;;;15.67;78.12;100360.91;4869841;29;20092;-82
2023/07/05 05:30:20;;;;;;;5.75;3.92;;;;;;;15.75;77.94;100353.44;4858551;29;20141;-81
2023/07/05 05:32:47;;;;;;;5.70;4.03;;;;;;;15.72;73.22;100347.38;4891034;29;20049;-80
2023/07/05 05:35:15;;;;;;;5.03;3.90;;;;;;;15.88;75.32;100339.53;4886021;29;20072;-81
2023/07/05 05:37:42;;;;;;;7.57;4.43;;;;;;;15.97;78.33;100341.75;4867510;29;20074;-81
2023/07/05 05:40:10;;;;;;;8.07;4.35;;;;;;;16.07;74.15;100337.72;4857119;29;20052;-82
2023/07/05 05:42:37;;;;;;;8.23;4.07;;;;;;;16.07;74.39;100332.41;4869171;29;20322;-83
2023/07/05 05:45:04;;;;;;;9.23;4.90;;;;;;;16.08;75.43;100327.94;4879836;29;20056;-83
2023/07/05 05:47:31;;;;;;;11.20;4.72;;;;;;;16.22;74.29;100328.97;4870257;29;20496;-82
2023/07/05 05:49:58;;;;;;;6.65;3.88;;;;;;;16.35;74.67;100321.25;4876154;29;20065;-83
2023/07/05 05:52:25;;;;;;;7.75;4.30;;;;;;;16.39;69.99;100311.28;4890127;29;20115;-82
2023/07/05 05:54:52;;;;;;;4.95;3.58;;;;;;;16.44;70.73;100310.13;4892489;29;20533;-81
2023/07/05 05:57:18;;;;;;;5.57;4.38;;;;;;;16.36;69.88;100320.31;4874113;29;20057;-82
2023/07/05 05:59:45;;;;;;;11.32;4.80;;;;;;;16.46;71.68;100313.56;4872292;29;20484;-83
2023/07/05 06:02:12;;;;;;;8.85;4.10;;;;;;;16.54;72.04;100302.50;4855118;29;20051;-80
2023/07/05 06:04:39;;;;;;;5.53;3.72;;;;;;;16.56;70.22;100308.63;4877117;29;20605;-82
2023/07/05 06:07:06;;;;;;;5.07;4.50;;;;;;;16.61;71.68;100306.59;4876544;29;20048;-82
2023/07/05 06:09:43;;;;;;;8.70;4.20;;;;;;;16.73;69.45;100305.13;4872404;29;20048;-82
2023/07/05 06:12:09;;;;;;;9.48;4.18;;;;;;;16.76;71.20;100299.66;4891080;29;20068;-82
2023/07/05 06:14:36;;;;;;;6.35;3.80;;;;;;;16.80;71.80;100296.72;4876352;29;20457;-83
2023/07/05 06:17:03;;;;;;;6.68;4.00;;;;;;;16.96;70.61;100291.47;4870387;29;20049;-83
2023/07/05 06:19:30;;;;;;;6.53;4.10;;;;;;;17.22;68.51;100286.53;4887695;29;20041;-82
2023/07/05 06:22:01;;;;;;;5.28;3.72;;;;;;;17.45;69.19;100284.34;4865266;29;20037;-84
2023/07/05 06:24:28;;;;;;;5.10;3.90;;;;;;;17.64;65.61;100267.31;4875411;29;20040;-82
2023/07/05 06:26:54;;;;;;;6.72;3.67;;;;;;;17.70;65.40;100261.66;4891439;29;20089;-81
2023/07/05 06:29:22;;;;;;;7.50;5.03;;;;;;;17.89;65.02;100256.13;4886487;29;20048;-81
2023/07/05 06:31:48;;;;;;;5.85;4.30;;;;;;;18.05;64.74;100250.75;4874008;29;20046;-82
2023/07/05 06:34:17;;;;;;;7.50;3.90;;;;;;;18.05;67.36;100242.75;4865490;29;20519;-82
2023/07/05 06:36:44;;;;;;;6.30;3.88;;;;;;;18.17;64.07;100247.41;4895324;29;20072;-84
2023/07/05 06:39:12;;;;;;;7.95;4.00;;;;;;;18.09;61.36;100250.50;4879548;29;20116;-79
2023/07/05 06:41:40;;;;;;;5.05;4.03;;;;;;;18.22;65.58;100253.31;4870186;23;20347;-83
2023/07/05 06:44:07;;;;;;;6.45;4.28;;;;;;;18.09;69.65;100239.81;4898624;23;20024;-80
2023/07/05 06:49:23;;;;;;;5.97;4.32;;;;;;;17.89;66.28;100227.59;4896994;29;20370;-83
2023/07/05 06:51:50;;;;;;;7.57;4.63;;;;;;;17.83;67.22;100221.75;4890088;29;20045;-84
2023/07/05 06:54:18;;;;;;;5.18;4.07;;;;;;;17.91;68.15;100217.69;4900155;29;20055;-81
2023/07/05 06:56:45;;;;;;;7.55;4.18;;;;;;;17.86;67.37;100214.41;4899124;29;20536;-82
2023/07/05 06:59:12;;;;;;;6.30;4.80;;;;;;;17.95;67.71;100213.88;4913766;29;20524;-80
2023/07/05 07:01:38;;;;;;;6.68;4.47;;;;;;;17.97;65.10;100205.75;4898924;29;20041;-83
2023/07/05 07:04:05;;;;;;;7.00;4.43;;;;;;;18.04;63.22;100207.13;4873346;29;20065;-81
2023/07/05 07:06:33;;;;;;;6.15;4.35;;;;;;;17.94;65.99;100206.81;4883692;29;20442;-81
2023/07/05 07:09:04;;;;;;;8.15;4.70;;;;;;;18.02;64.84;100197.50;4874260;29;20044;-81
2023/07/05 07:11:32;;;;;;;7.13;4.47;;;;;;;17.89;65.11;100195.50;4887635;29;20033;-83
2023/07/05 07:13:58;;;;;;;6.10;4.63;;;;;;;17.83;65.69;100190.56;4866052;29;20045;-81
2023/07/05 07:16:25;;;;;;;6.75;4.20;;;;;;;17.82;66.40;100174.59;4883350;29;20069;-83
2023/07/05 07:18:52;;;;;;;6.75;4.35;;;;;;;17.78;67.26;100181.94;4869470;29;20045;-82
2023/07/05 07:21:19;;;;;;;8.55;4.95;;;;;;;17.76;67.40;100183.84;4875083;29;20078;-80
2023/07/05 07:23:49;;;;;;;7.32;4.75;;;;;;;17.71;68.07;100177.88;4854791;29;20081;-82
2023/07/05 07:26:22;;;;;;;8.35;4.82;;;;;;;17.79;68.94;100177.44;4875111;29;20050;-81
2023/07/05 07:28:52;;;;;;;8.18;4.47;;;;;;;17.78;68.27;100175.72;4889090;29;20048;-82
2023/07/05 07:31:24;;;;;;;9.23;4.85;;;;;;;17.61;68.18;100165.97;4889622;29;20044;-82
2023/07/05 07:33:53;;;;;;;9.60;4.80;;;;;;;17.75;69.12;100163.41;4888714;29;20571;-84
2023/07/05 07:36:25;;;;;;;6.82;4.70;;;;;;;17.76;70.97;100159.78;4871579;29;20045;-82
2023/07/05 07:38:54;;;;;;;7.65;5.32;;;;;;;17.78;68.81;100159.69;4891334;29;20040;-82
2023/07/05 07:41:26;;;;;;;8.15;4.75;;;;;;;17.83;69.72;100161.16;4871014;29;20033;-81
2023/07/05 07:43:55;;;;;;;8.82;4.63;;;;;;;17.86;70.15;100152.09;4905871;29;20493;-80
2023/07/05 07:46:24;;;;;;;8.15;4.88;;;;;;;18.02;67.25;100138.69;4880353;29;20549;-82
2023/07/05 07:48:53;;;;;;;9.05;4.60;;;;;;;18.13;70.15;100142.44;4901090;29;20037;-83
2023/07/05 07:51:23;;;;;;;6.60;4.75;;;;;;;18.35;71.29;100152.69;4881760;29;20037;-81
2023/07/05 07:54:10;;;;;;;9.23;5.10;;;;;;;18.77;67.01;100141.19;4894182;29;20050;-82
2023/07/05 07:56:39;;;;;;;;;;;;;;;18.99;64.76;100154.06;4885069;29;20327;-81
2023/07/05 07:59:07;;;;;;;8.20;5.03;;;;;;;19.11;64.46;100156.00;4878104;29;20440;-83
2023/07/05 08:01:37;;;;;;;6.75;5.05;;;;;;;19.36;62.87;100149.06;4901089;29;20415;-83
2023/07/05 08:04:09;;;;;;;7.18;4.88;;;;;;;19.36;63.67;100131.16;4891346;29;20088;-82
2023/07/05 08:06:44;;;;;;;6.53;5.15;;;;;;;19.56;64.19;100137.91;4867547;29;20033;-83
2023/07/05 08:09:15;;;;;;;12.20;6.07;;;;;;;19.87;66.80;100139.44;4876750;29;20064;-84
2023/07/05 08:11:42;;;;;;;7.72;5.63;;;;;;;20.12;64.28;100129.72;4876890;29;20051;-81
2023/07/05 08:14:09;;;;;;;7.40;4.82;;;;;;;20.35;60.26;100129.00;4870943;29;20512;-82
2023/07/05 08:16:36;;;;;;;7.43;5.15;;;;;;;20.50;61.46;100125.25;4872380;29;20242;-81
2023/07/05 08:19:03;;;;;;;8.88;6.03;;;;;;;20.90;61.68;100124.25;4876588;29;20048;-81
2023/07/05 08:21:30;;;;;;;10.80;5.78;;;;;;;21.12;62.33;100116.38;4898211;29;20422;-81
2023/07/05 08:23:57;;;;;;;9.55;6.47;;;;;;;21.08;56.45;100121.09;4864469;29;20527;-83
2023/07/05 08:26:42;;;;;;;8.23;6.18;;;;;;;21.16;60.87;100138.50;4885903;29;20405;-81
2023/07/05 08:29:09;;;;;;;10.50;6.10;;;;;;;21.11;57.57;100143.34;4890166;29;20055;-81
2023/07/05 08:31:35;;;;;;;7.20;5.78;;;;;;;21.05;59.00;100131.22;4904040;29;20504;-83
2023/07/05 08:34:02;;;;;;;7.90;6.07;;;;;;;21.20;62.03;100134.63;4899279;29;20481;-86
2023/07/05 08:36:35;;;;;;;9.15;5.60;;;;;;;21.32;64.01;100142.66;4889907;29;20139;-81
2023/07/05 08:39:05;;;;;;;10.70;6.43;;;;;;;21.38;57.67;100137.81;4870734;29;20064;-83
2023/07/05 08:41:45;;;;;;;9.45;6.53;;;;;;;21.48;58.33;100144.22;4877283;29;20043;-82
2023/07/05 08:44:47;;;;;;;10.70;7.07;;;;;;;21.48;58.46;100147.78;4876955;29;20061;-84
2023/07/05 08:47:27;;;;;;;9.88;5.95;;;;;;;21.31;58.41;100148.16;4879184;29;20087;-84
2023/07/05 08:50:15;;;;;;;9.60;6.82;;;;;;;21.19;64.82;100157.06;4887762;29;20056;-82
2023/07/05 08:52:59;;;;;;;10.00;7.05;;;;;;;21.12;72.84;100153.97;4891908;29;20074;-81
2023/07/05 08:55:40;;;;;;;12.82;7.35;;;;;;;21.13;72.48;100153.00;4888168;29;20056;-83
2023/07/05 08:58:07;;;;;;;11.43;7.18;;;;;;;21.24;71.63;100157.59;4889724;29;20049;-82
2023/07/05 09:00:41;;;;;;;10.00;7.43;;;;;;;21.26;70.22;100151.13;4896126;29;20293;-84
2023/07/05 09:03:11;;;;;;;;;;;;;;;21.35;66.68;100155.00;4870517;29;20074;-84
2023/07/05 09:05:53;;;;;;;12.45;8.57;;;;;;;21.35;62.77;100171.13;4899295;29;20068;-83
2023/07/05 09:08:25;;;;;;;11.40;8.98;;;;;;;21.23;63.26;100158.56;4904037;29;20056;-85
2023/07/05 09:10:54;;;;;;;11.98;8.38;;;;;;;21.11;67.82;100160.34;4874076;29;20040;-87
2023/07/05 09:13:31;;;;;;;12.02;8.25;;;;;;;20.95;79.59;100152.50;4879450;29;20052;-89
2023/07/05 09:16:09;;;;;;;14.07;8.98;;;;;;;20.94;82.46;100160.69;4867443;29;20061;-83
2023/07/05 09:18:54;;;;;;;10.40;7.93;;;;;;;20.84;86.99;100164.97;4862096;29;20450;-83
2023/07/05 09:21:33;;;;;;;11.77;9.07;;;;;;;20.95;85.67;100170.44;4878927;29;20571;-83
2023/07/05 09:24:06;;;;;;;13.40;8.90;;;;;;;21.08;86.20;100158.69;4864116;29;20048;-84
2023/07/05 09:26:36;;;;;;;13.17;9.07;;;;;;;21.16;82.97;100163.53;4880497;29;20093;-83
2023/07/05 09:29:03;;;;;;;11.63;8.90;;;;;;;21.16;80.77;100174.28;4860221;29;20044;-82
2023/07/05 09:31:29;;;;;;;14.02;9.52;;;;;;;21.18;80.83;100152.66;4880001;29;20059;-81
2023/07/05 09:34:11;;;;;;;16.80;9.98;;;;;;;21.26;73.94;100150.28;4872873;29;20506;-84
2023/07/05 09:36:39;;;;;;;13.38;9.02;;;;;;;21.43;77.45;100146.38;4891604;29;20040;-82
2023/07/05 09:39:38;;;;;;;13.63;9.70;;;;;;;21.63;70.89;100135.03;4891545;29;20148;-84
2023/07/05 09:42:11;;;;;;;14.82;10.73;;;;;;;21.76;70.78;100134.97;4860529;29;20534;-83
2023/07/05 09:44:38;;;;;;;11.60;9.73;;;;;;;21.76;69.09;100121.50;4859049;29;20045;-83
2023/07/05 09:47:05;;;;;;;11.85;9.57;;;;;;;21.87;65.64;100118.88;4844838;29;20060;-83
2023/07/05 09:49:32;;;;;;;15.30;11.32;;;;;;;21.98;69.24;100118.06;4872770;29;20425;-81
2023/07/05 09:51:59;;;;;;;13.73;11.30;;;;;;;22.09;67.95;100118.13;4855097;29;20069;-82
2023/07/05 09:54:31;;;;;;;24.23;22.20;;;;;;;22.17;65.12;100113.00;4874509;29;20501;-84
2023/07/05 09:57:04;;;;;;;13.15;10.50;;;;;;;22.11;65.22;100113.47;4851215;29;20041;-82
2023/07/05 09:59:33;;;;;;;12.15;8.73;;;;;;;21.92;58.27;100111.31;4844213;29;20465;-86
2023/07/05 10:02:12;;;;;;;10.77;8.15;;;;;;;22.11;63.06;100116.16;4844504;29;20060;-84
2023/07/05 10:04:47;;;;;;;11.45;7.90;;;;;;;22.17;64.47;100115.69;4871194;29;20152;-83
2023/07/05 10:07:17;;;;;;;15.38;8.40;;;;;;;22.34;62.19;100117.94;4864071;29;20132;-83
2023/07/05 10:10:01;;;;;;;10.00;7.93;;;;;;;22.66;63.97;100122.63;4847324;29;20130;-82
2023/07/05 10:12:35;;;;;;;10.95;8.52;;;;;;;22.84;58.49;100114.91;4888997;29;20048;-87
2023/07/05 10:15:19;;;;;;;11.95;7.68;;;;;;;23.00;61.23;100116.28;4880233;29;20497;-87
2023/07/05 10:17:46;;;;;;;10.57;7.93;;;;;;;23.04;56.71;100116.91;4864381;29;20113;-85
2023/07/05 10:20:17;;;;;;;12.02;7.72;;;;;;;23.40;62.36;100117.56;4895819;29;20082;-80
2023/07/05 10:22:44;;;;;;;9.77;7.18;;;;;;;23.82;56.83;100114.03;4866274;29;20054;-85
2023/07/05 10:25:19;;;;;;;9.43;7.75;;;;;;;23.85;52.77;100108.34;4877786;29;20041;-87
2023/07/05 10:27:50;;;;;;;11.65;8.38;;;;;;;23.93;54.15;100112.25;4879465;29;20051;-84
2023/07/05 10:30:20;;;;;;;9.88;7.18;;;;;;;23.93;53.61;100112.25;4862243;29;20059;-81
2023/07/05 10:32:51;;;;;;;6.97;6.10;;;;;;;23.83;54.33;100117.56;4887103;29;20515;-83
2023/07/05 10:35:24;;;;;;;10.65;6.50;;;;;;;23.84;54.86;100101.25;4885757;29;20055;-86
2023/07/05 10:37:51;;;;;;;10.40;6.85;;;;;;;23.89;55.53;100100.88;4865419;29;20413;-83
2023/07/05 10:40:20;;;;;;;10.45;6.85;;;;;;;23.96;53.26;100091.25;4870817;29;20104;-83
2023/07/05 10:42:51;;;;;;;10.52;6.82;;;;;;;24.00;52.50;100100.81;4864472;29;20290;-82
2023/07/05 10:45:19;;;;;;;8.10;6.60;;;;;;;23.96;53.36;100107.44;4893998;29;20044;-84
2023/07/05 10:47:51;;;;;;;8.88;7.50;;;;;;;24.05;56.90;100103.97;4877614;29;20086;-82
2023/07/05 10:50:28;;;;;;;9.57;7.00;;;;;;;24.15;51.85;100101.34;4876631;29;20053;-83
2023/07/05 10:53:11;;;;;;;9.60;6.97;;;;;;;24.35;53.16;100091.53;4874279;29;20060;-83
2023/07/05 10:55:44;;;;;;;9.25;7.45;;;;;;;24.78;52.74;100093.19;4884551;29;20037;-81
2023/07/05 10:58:16;;;;;;;8.05;6.68;;;;;;;25.07;51.16;100104.13;4864656;29;20432;-80
2023/07/05 11:00:49;;;;;;;7.82;5.97;;;;;;;25.22;50.25;100106.31;4890941;29;20048;-82
2023/07/05 11:03:38;;;;;;;8.88;6.50;;;;;;;25.32;52.23;100078.44;4868721;29;20051;-83
2023/07/05 11:06:05;;;;;;;8.52;6.28;;;;;;;25.36;53.84;100078.00;4880776;29;20049;-83
2023/07/05 11:08:37;;;;;;;7.20;6.35;;;;;;;25.57;48.67;100077.03;4890492;29;20492;-82
2023/07/05 11:11:11;;;;;;;9.00;6.32;;;;;;;25.64;49.49;100084.44;4885427;29;20130;-82
2023/07/05 11:13:37;;;;;;;7.53;5.90;;;;;;;25.51;47.79;100078.47;4871826;29;20037;-80
2023/07/05 11:16:04;;;;;;;7.90;5.93;;;;;;;25.43;49.29;100076.44;4878427;29;20072;-80
2023/07/05 11:18:31;;;;;;;6.90;5.55;;;;;;;25.19;47.87;100084.94;4877955;29;20041;-81
2023/07/05 11:20:59;;;;;;;8.75;6.25;;;;;;;25.03;49.00;100079.22;4871357;29;20052;-81
2023/07/05 11:23:42;;;;;;;7.25;5.88;;;;;;;25.15;50.93;100077.28;4874467;29;20561;-82
2023/07/05 11:26:10;;;;;;;8.00;6.10;;;;;;;25.28;50.93;100077.84;4860104;29;20049;-82
2023/07/05 11:28:40;;;;;;;8.57;6.53;;;;;;;25.19;48.79;100075.97;4880258;29;20044;-82
2023/07/05 11:31:08;;;;;;;8.43;6.40;;;;;;;25.17;48.98;100077.97;4874008;29;20132;-81
2023/07/05 11:33:35;;;;;;;9.02;5.78;;;;;;;24.93;49.60;100084.56;4859015;29;20104;-81
2023/07/05 11:36:05;;;;;;;7.10;6.10;;;;;;;24.91;49.46;100097.38;4899306;29;20100;-80
2023/07/05 11:38:35;;;;;;;7.53;6.38;;;;;;;24.85;49.72;100087.09;4853878;29;20497;-83